CheckWX is a tool to help pilots better visualize weather data.  It is not intended as a substitute for an official pre-flight weather briefing.

13:39:36 UTC

KVTI METAR
Vinton Veterans Memorial Arpk Airport
Vinton, Iowa, USA
Current

25 mins ago

KVTI 191315Z AUTO 01005KT 10SM OVC035 M10/M15 A3063 RMK AO2 T11021146
Observed
Feb-19 @ 13:15 UTC
Wind
  • 010° at 5 KTS
Visibility
10 SM
Flight Rules
VFR
Cloud Levels
  • Overcast at 3,500' AGL
Temperature
-10°C / 14°F
Dewpoint
-15°C / 5°F
Humidity
67%
Altimeter
30.63" Hg
Pressure
1037.22 hPa
Previous

45 mins ago

KVTI 191255Z AUTO 34006KT 10SM OVC035 M10/M14 A3062 RMK AO2 T11011142
Observed
Feb-19 @ 12:55 UTC
Wind
  • 340° at 6 KTS
Visibility
10 SM
Flight Rules
VFR
Cloud Levels
  • Overcast at 3,500' AGL
Temperature
-10°C / 14°F
Dewpoint
-14°C / 7°F
Humidity
73%
Altimeter
30.62" Hg
Pressure
1036.92 hPa
Previous

1 hour ago

KVTI 191235Z AUTO 35007KT 10SM OVC037 M10/M14 A3062 RMK AO2 T11051145
Observed
Feb-19 @ 12:35 UTC
Wind
  • 350° at 7 KTS
Visibility
10 SM
Flight Rules
VFR
Cloud Levels
  • Overcast at 3,700' AGL
Temperature
-11°C / 12°F
Dewpoint
-15°C / 5°F
Humidity
73%
Altimeter
30.62" Hg
Pressure
1036.92 hPa